sensor_id;sensor_type;location;lat;lon;timestamp;temperature;humidity
68251;DHT22;55066;51.560;4.642;2023-10-31T00:00:15;9.76;99.99
68251;DHT22;55066;51.560;4.642;2023-10-31T00:02:41;9.78;99.99
68251;DHT22;55066;51.560;4.642;2023-10-31T00:05:06;9.65;99.99
68251;DHT22;55066;51.560;4.642;2023-10-31T00:07:32;9.61;99.99
68251;DHT22;55066;51.560;4.642;2023-10-31T00:09:57;9.59;99.99
68251;DHT22;55066;51.560;4.642;2023-10-31T00:12:23;9.65;99.99
68251;DHT22;55066;51.560;4.642;2023-10-31T00:14:48;9.68;99.99
68251;DHT22;55066;51.560;4.642;2023-10-31T00:17:13;9.71;99.99
68251;DHT22;55066;51.560;4.642;2023-10-31T00:19:39;9.68;99.99
68251;DHT22;55066;51.560;4.642;2023-10-31T00:22:04;9.65;99.99
68251;DHT22;55066;51.560;4.642;2023-10-31T00:24:30;9.68;99.99
68251;DHT22;55066;51.560;4.642;2023-10-31T00:26:57;9.71;99.99
68251;DHT22;55066;51.560;4.642;2023-10-31T00:29:23;9.75;99.99
68251;DHT22;55066;51.560;4.642;2023-10-31T00:31:48;9.75;99.99
68251;DHT22;55066;51.560;4.642;2023-10-31T00:34:14;9.73;99.99
68251;DHT22;55066;51.560;4.642;2023-10-31T00:36:39;9.76;99.99
68251;DHT22;55066;51.560;4.642;2023-10-31T00:39:05;9.73;99.99
68251;DHT22;55066;51.560;4.642;2023-10-31T00:41:30;9.83;99.99
68251;DHT22;55066;51.560;4.642;2023-10-31T00:43:56;9.85;99.99
68251;DHT22;55066;51.560;4.642;2023-10-31T00:46:21;9.82;99.99
68251;DHT22;55066;51.560;4.642;2023-10-31T00:48:47;9.85;99.99
68251;DHT22;55066;51.560;4.642;2023-10-31T00:51:13;9.85;99.99
68251;DHT22;55066;51.560;4.642;2023-10-31T00:53:39;9.87;99.99
68251;DHT22;55066;51.560;4.642;2023-10-31T00:56:04;9.86;99.99
68251;DHT22;55066;51.560;4.642;2023-10-31T00:58:30;9.89;99.99
68251;DHT22;55066;51.560;4.642;2023-10-31T01:00:55;9.92;99.99
68251;DHT22;55066;51.560;4.642;2023-10-31T01:03:21;9.93;99.99
68251;DHT22;55066;51.560;4.642;2023-10-31T01:05:46;9.96;99.99
68251;DHT22;55066;51.560;4.642;2023-10-31T01:08:12;9.92;99.99
68251;DHT22;55066;51.560;4.642;2023-10-31T01:10:37;9.93;99.99
68251;DHT22;55066;51.560;4.642;2023-10-31T01:13:02;9.94;99.99
68251;DHT22;55066;51.560;4.642;2023-10-31T01:15:28;10.00;99.99
68251;DHT22;55066;51.560;4.642;2023-10-31T01:17:53;10.07;99.99
68251;DHT22;55066;51.560;4.642;2023-10-31T01:20:18;10.02;99.99
68251;DHT22;55066;51.560;4.642;2023-10-31T01:22:44;9.93;99.99
68251;DHT22;55066;51.560;4.642;2023-10-31T01:25:10;10.00;99.99
68251;DHT22;55066;51.560;4.642;2023-10-31T01:27:36;10.02;99.99
68251;DHT22;55066;51.560;4.642;2023-10-31T01:30:01;10.06;99.99
68251;DHT22;55066;51.560;4.642;2023-10-31T01:32:27;9.97;99.99
68251;DHT22;55066;51.560;4.642;2023-10-31T01:34:54;9.99;99.99
68251;DHT22;55066;51.560;4.642;2023-10-31T01:37:19;10.09;99.99
68251;DHT22;55066;51.560;4.642;2023-10-31T01:39:46;10.13;99.99
68251;DHT22;55066;51.560;4.642;2023-10-31T01:42:16;10.17;99.99
68251;DHT22;55066;51.560;4.642;2023-10-31T01:44:42;10.16;99.99
68251;DHT22;55066;51.560;4.642;2023-10-31T01:47:08;10.10;99.99
68251;DHT22;55066;51.560;4.642;2023-10-31T01:49:35;10.18;99.99
68251;DHT22;55066;51.560;4.642;2023-10-31T01:52:02;10.20;99.99
68251;DHT22;55066;51.560;4.642;2023-10-31T01:54:29;10.18;99.99
68251;DHT22;55066;51.560;4.642;2023-10-31T01:56:57;10.17;99.99
68251;DHT22;55066;51.560;4.642;2023-10-31T01:59:25;10.27;99.99
68251;DHT22;55066;51.560;4.642;2023-10-31T02:01:50;10.33;99.99
68251;DHT22;55066;51.560;4.642;2023-10-31T02:04:15;10.31;99.99
68251;DHT22;55066;51.560;4.642;2023-10-31T02:06:41;10.31;99.99
68251;DHT22;55066;51.560;4.642;2023-10-31T02:09:06;10.33;99.99
68251;DHT22;55066;51.560;4.642;2023-10-31T02:11:33;10.24;99.99
68251;DHT22;55066;51.560;4.642;2023-10-31T02:13:59;10.31;99.99
68251;DHT22;55066;51.560;4.642;2023-10-31T02:16:24;10.33;99.99
68251;DHT22;55066;51.560;4.642;2023-10-31T02:18:50;10.27;99.99
68251;DHT22;55066;51.560;4.642;2023-10-31T02:21:19;10.30;99.99
68251;DHT22;55066;51.560;4.642;2023-10-31T02:23:58;10.33;99.99
68251;DHT22;55066;51.560;4.642;2023-10-31T02:26:31;10.25;99.99
68251;DHT22;55066;51.560;4.642;2023-10-31T02:28:56;10.18;99.99
68251;DHT22;55066;51.560;4.642;2023-10-31T02:31:23;10.21;99.99
68251;DHT22;55066;51.560;4.642;2023-10-31T02:33:49;10.18;99.99
68251;DHT22;55066;51.560;4.642;2023-10-31T02:36:14;10.22;99.99
68251;DHT22;55066;51.560;4.642;2023-10-31T02:38:40;10.17;99.99
68251;DHT22;55066;51.560;4.642;2023-10-31T02:41:06;10.21;99.99
68251;DHT22;55066;51.560;4.642;2023-10-31T02:43:31;10.18;99.99
68251;DHT22;55066;51.560;4.642;2023-10-31T02:45:56;10.25;99.99
68251;DHT22;55066;51.560;4.642;2023-10-31T02:48:22;10.14;99.99
68251;DHT22;55066;51.560;4.642;2023-10-31T02:50:49;10.13;99.99
68251;DHT22;55066;51.560;4.642;2023-10-31T02:53:14;10.17;99.99
68251;DHT22;55066;51.560;4.642;2023-10-31T02:55:40;10.14;99.99
68251;DHT22;55066;51.560;4.642;2023-10-31T02:58:05;10.21;99.99
68251;DHT22;55066;51.560;4.642;2023-10-31T03:00:31;10.11;99.99
68251;DHT22;55066;51.560;4.642;2023-10-31T03:02:56;10.09;99.99
68251;DHT22;55066;51.560;4.642;2023-10-31T03:05:22;10.07;99.99
68251;DHT22;55066;51.560;4.642;2023-10-31T03:07:48;10.07;99.99
68251;DHT22;55066;51.560;4.642;2023-10-31T03:10:14;10.02;99.99
68251;DHT22;55066;51.560;4.642;2023-10-31T03:12:40;10.02;99.99
68251;DHT22;55066;51.560;4.642;2023-10-31T03:15:06;10.07;99.99
68251;DHT22;55066;51.560;4.642;2023-10-31T03:17:32;10.00;99.99
68251;DHT22;55066;51.560;4.642;2023-10-31T03:19:57;10.00;99.99
68251;DHT22;55066;51.560;4.642;2023-10-31T03:22:23;10.02;99.99
68251;DHT22;55066;51.560;4.642;2023-10-31T03:24:49;10.04;99.99
68251;DHT22;55066;51.560;4.642;2023-10-31T03:27:14;10.04;99.99
68251;DHT22;55066;51.560;4.642;2023-10-31T03:29:40;10.02;99.99
68251;DHT22;55066;51.560;4.642;2023-10-31T03:32:06;10.04;99.99
68251;DHT22;55066;51.560;4.642;2023-10-31T03:34:31;10.04;99.99
68251;DHT22;55066;51.560;4.642;2023-10-31T03:36:58;10.10;99.99
68251;DHT22;55066;51.560;4.642;2023-10-31T03:39:23;10.02;99.99
68251;DHT22;55066;51.560;4.642;2023-10-31T03:41:49;9.99;99.99
68251;DHT22;55066;51.560;4.642;2023-10-31T03:44:14;9.90;99.99
68251;DHT22;55066;51.560;4.642;2023-10-31T03:46:40;9.94;99.99
68251;DHT22;55066;51.560;4.642;2023-10-31T03:49:05;9.89;99.99
68251;DHT22;55066;51.560;4.642;2023-10-31T03:51:33;9.99;99.99
68251;DHT22;55066;51.560;4.642;2023-10-31T03:53:59;9.89;99.99
68251;DHT22;55066;51.560;4.642;2023-10-31T03:56:25;9.87;99.99
68251;DHT22;55066;51.560;4.642;2023-10-31T03:58:50;9.85;99.99
68251;DHT22;55066;51.560;4.642;2023-10-31T04:01:16;9.93;99.99
68251;DHT22;55066;51.560;4.642;2023-10-31T04:03:42;9.94;99.99
68251;DHT22;55066;51.560;4.642;2023-10-31T04:06:08;9.90;99.99
68251;DHT22;55066;51.560;4.642;2023-10-31T04:08:33;9.87;99.99
68251;DHT22;55066;51.560;4.642;2023-10-31T04:10:59;9.87;99.99
68251;DHT22;55066;51.560;4.642;2023-10-31T04:13:24;9.81;99.99
68251;DHT22;55066;51.560;4.642;2023-10-31T04:15:50;9.93;99.99
68251;DHT22;55066;51.560;4.642;2023-10-31T04:18:17;9.82;99.99
68251;DHT22;55066;51.560;4.642;2023-10-31T04:20:43;9.78;99.99
68251;DHT22;55066;51.560;4.642;2023-10-31T04:23:09;9.90;99.99
68251;DHT22;55066;51.560;4.642;2023-10-31T04:25:35;9.87;99.99
68251;DHT22;55066;51.560;4.642;2023-10-31T04:28:00;9.83;99.99
68251;DHT22;55066;51.560;4.642;2023-10-31T04:30:26;9.90;99.99
68251;DHT22;55066;51.560;4.642;2023-10-31T04:32:54;9.82;99.99
68251;DHT22;55066;51.560;4.642;2023-10-31T04:35:20;9.82;99.99
68251;DHT22;55066;51.560;4.642;2023-10-31T04:37:45;9.76;99.99
68251;DHT22;55066;51.560;4.642;2023-10-31T04:40:12;9.81;99.99
68251;DHT22;55066;51.560;4.642;2023-10-31T04:42:39;9.71;99.99
68251;DHT22;55066;51.560;4.642;2023-10-31T04:45:06;9.72;99.99
68251;DHT22;55066;51.560;4.642;2023-10-31T04:47:31;9.66;99.99
68251;DHT22;55066;51.560;4.642;2023-10-31T04:49:58;9.66;99.99
68251;DHT22;55066;51.560;4.642;2023-10-31T04:52:25;9.63;99.99
68251;DHT22;55066;51.560;4.642;2023-10-31T04:54:51;9.65;99.99
68251;DHT22;55066;51.560;4.642;2023-10-31T04:57:17;9.66;99.99
68251;DHT22;55066;51.560;4.642;2023-10-31T04:59:43;9.58;99.99
68251;DHT22;55066;51.560;4.642;2023-10-31T05:02:09;9.59;99.99
68251;DHT22;55066;51.560;4.642;2023-10-31T05:04:38;9.61;99.99
68251;DHT22;55066;51.560;4.642;2023-10-31T05:07:03;9.61;99.99
68251;DHT22;55066;51.560;4.642;2023-10-31T05:09:29;9.63;99.99
68251;DHT22;55066;51.560;4.642;2023-10-31T05:11:54;9.61;99.99
68251;DHT22;55066;51.560;4.642;2023-10-31T05:14:20;9.63;99.99
68251;DHT22;55066;51.560;4.642;2023-10-31T05:16:45;9.65;99.99
68251;DHT22;55066;51.560;4.642;2023-10-31T05:19:11;9.65;99.99
68251;DHT22;55066;51.560;4.642;2023-10-31T05:21:36;9.71;99.99
68251;DHT22;55066;51.560;4.642;2023-10-31T05:24:02;9.69;99.99
68251;DHT22;55066;51.560;4.642;2023-10-31T05:26:27;9.65;99.99
68251;DHT22;55066;51.560;4.642;2023-10-31T05:28:55;9.66;99.99
68251;DHT22;55066;51.560;4.642;2023-10-31T05:31:23;9.69;99.99
68251;DHT22;55066;51.560;4.642;2023-10-31T05:33:49;9.71;99.99
68251;DHT22;55066;51.560;4.642;2023-10-31T05:36:26;9.73;99.99
68251;DHT22;55066;51.560;4.642;2023-10-31T05:38:53;9.78;99.99
68251;DHT22;55066;51.560;4.642;2023-10-31T05:41:18;9.71;99.99
68251;DHT22;55066;51.560;4.642;2023-10-31T05:43:44;9.76;99.99
68251;DHT22;55066;51.560;4.642;2023-10-31T05:46:10;9.73;99.99
68251;DHT22;55066;51.560;4.642;2023-10-31T05:48:40;9.68;99.99
68251;DHT22;55066;51.560;4.642;2023-10-31T05:51:13;9.72;99.99
68251;DHT22;55066;51.560;4.642;2023-10-31T05:53:40;9.69;99.99
68251;DHT22;55066;51.560;4.642;2023-10-31T05:56:06;9.69;99.99
68251;DHT22;55066;51.560;4.642;2023-10-31T05:58:33;9.62;99.99
68251;DHT22;55066;51.560;4.642;2023-10-31T06:00:58;9.68;99.99
68251;DHT22;55066;51.560;4.642;2023-10-31T06:03:23;9.66;99.99
68251;DHT22;55066;51.560;4.642;2023-10-31T06:05:49;9.62;99.99
68251;DHT22;55066;51.560;4.642;2023-10-31T06:08:14;9.59;99.99
68251;DHT22;55066;51.560;4.642;2023-10-31T06:10:40;9.63;99.99
68251;DHT22;55066;51.560;4.642;2023-10-31T06:13:05;9.63;99.99
68251;DHT22;55066;51.560;4.642;2023-10-31T06:15:31;9.62;99.99
68251;DHT22;55066;51.560;4.642;2023-10-31T06:17:56;9.62;99.99
68251;DHT22;55066;51.560;4.642;2023-10-31T06:20:22;9.62;99.99
68251;DHT22;55066;51.560;4.642;2023-10-31T06:22:47;9.69;99.99
68251;DHT22;55066;51.560;4.642;2023-10-31T06:25:12;9.69;99.99
68251;DHT22;55066;51.560;4.642;2023-10-31T06:27:38;9.72;99.99
68251;DHT22;55066;51.560;4.642;2023-10-31T06:30:04;9.75;99.99
68251;DHT22;55066;51.560;4.642;2023-10-31T06:32:29;9.79;99.99
68251;DHT22;55066;51.560;4.642;2023-10-31T06:34:56;9.75;99.99
68251;DHT22;55066;51.560;4.642;2023-10-31T06:37:22;9.65;99.99
68251;DHT22;55066;51.560;4.642;2023-10-31T06:39:47;9.62;99.99
68251;DHT22;55066;51.560;4.642;2023-10-31T06:42:12;9.54;99.99
68251;DHT22;55066;51.560;4.642;2023-10-31T06:44:38;9.48;99.99
68251;DHT22;55066;51.560;4.642;2023-10-31T06:47:03;9.48;99.99
68251;DHT22;55066;51.560;4.642;2023-10-31T06:49:29;9.41;99.99
68251;DHT22;55066;51.560;4.642;2023-10-31T06:51:54;9.44;99.99
68251;DHT22;55066;51.560;4.642;2023-10-31T06:54:20;9.51;99.99
68251;DHT22;55066;51.560;4.642;2023-10-31T06:56:46;9.61;99.99
68251;DHT22;55066;51.560;4.642;2023-10-31T06:59:11;9.61;99.99
68251;DHT22;55066;51.560;4.642;2023-10-31T07:01:37;9.63;99.99
68251;DHT22;55066;51.560;4.642;2023-10-31T07:04:03;9.68;99.99
68251;DHT22;55066;51.560;4.642;2023-10-31T07:06:28;9.71;99.99
68251;DHT22;55066;51.560;4.642;2023-10-31T07:08:54;9.69;99.99
68251;DHT22;55066;51.560;4.642;2023-10-31T07:11:19;9.68;99.99
68251;DHT22;55066;51.560;4.642;2023-10-31T07:13:45;9.68;99.99
68251;DHT22;55066;51.560;4.642;2023-10-31T07:16:10;9.59;99.99
68251;DHT22;55066;51.560;4.642;2023-10-31T07:18:36;9.46;99.99
68251;DHT22;55066;51.560;4.642;2023-10-31T07:21:01;9.38;99.99
68251;DHT22;55066;51.560;4.642;2023-10-31T07:23:27;9.31;99.99
68251;DHT22;55066;51.560;4.642;2023-10-31T07:25:52;9.32;99.99
68251;DHT22;55066;51.560;4.642;2023-10-31T07:28:18;9.32;99.99
68251;DHT22;55066;51.560;4.642;2023-10-31T07:30:43;9.30;99.99
68251;DHT22;55066;51.560;4.642;2023-10-31T07:33:09;9.30;99.99
68251;DHT22;55066;51.560;4.642;2023-10-31T07:35:34;9.32;99.99
68251;DHT22;55066;51.560;4.642;2023-10-31T07:38:00;9.28;99.99
68251;DHT22;55066;51.560;4.642;2023-10-31T07:40:25;9.26;99.99
68251;DHT22;55066;51.560;4.642;2023-10-31T07:42:51;9.34;99.99
68251;DHT22;55066;51.560;4.642;2023-10-31T07:45:16;9.30;99.99
68251;DHT22;55066;51.560;4.642;2023-10-31T07:47:42;9.35;99.99
68251;DHT22;55066;51.560;4.642;2023-10-31T07:50:07;9.34;99.99
68251;DHT22;55066;51.560;4.642;2023-10-31T07:52:33;9.42;99.99
68251;DHT22;55066;51.560;4.642;2023-10-31T07:54:59;9.41;99.99
68251;DHT22;55066;51.560;4.642;2023-10-31T07:57:24;9.48;99.99
68251;DHT22;55066;51.560;4.642;2023-10-31T07:59:49;9.45;99.99
68251;DHT22;55066;51.560;4.642;2023-10-31T08:02:15;9.45;99.99
68251;DHT22;55066;51.560;4.642;2023-10-31T08:04:40;9.52;99.99
68251;DHT22;55066;51.560;4.642;2023-10-31T08:07:06;9.51;99.99
68251;DHT22;55066;51.560;4.642;2023-10-31T08:09:31;9.51;99.99
68251;DHT22;55066;51.560;4.642;2023-10-31T08:11:57;9.55;99.99
68251;DHT22;55066;51.560;4.642;2023-10-31T08:14:22;9.63;99.99
68251;DHT22;55066;51.560;4.642;2023-10-31T08:16:48;9.66;99.99
68251;DHT22;55066;51.560;4.642;2023-10-31T08:19:13;9.78;99.99
68251;DHT22;55066;51.560;4.642;2023-10-31T08:21:39;9.90;99.99
68251;DHT22;55066;51.560;4.642;2023-10-31T08:24:06;9.96;99.99
68251;DHT22;55066;51.560;4.642;2023-10-31T08:26:34;10.13;99.99
68251;DHT22;55066;51.560;4.642;2023-10-31T08:28:59;10.21;99.99
68251;DHT22;55066;51.560;4.642;2023-10-31T08:31:26;10.20;99.99
68251;DHT22;55066;51.560;4.642;2023-10-31T08:33:51;10.28;99.99
68251;DHT22;55066;51.560;4.642;2023-10-31T08:36:19;10.28;99.99
68251;DHT22;55066;51.560;4.642;2023-10-31T08:38:45;10.25;99.99
68251;DHT22;55066;51.560;4.642;2023-10-31T08:41:10;10.11;99.99
68251;DHT22;55066;51.560;4.642;2023-10-31T08:43:36;10.14;99.99
68251;DHT22;55066;51.560;4.642;2023-10-31T08:46:01;10.18;99.99
68251;DHT22;55066;51.560;4.642;2023-10-31T08:48:27;10.31;99.99
68251;DHT22;55066;51.560;4.642;2023-10-31T08:50:52;10.34;99.99
68251;DHT22;55066;51.560;4.642;2023-10-31T08:53:18;10.42;99.99
68251;DHT22;55066;51.560;4.642;2023-10-31T08:55:46;10.49;99.99
68251;DHT22;55066;51.560;4.642;2023-10-31T08:58:12;10.48;99.99
68251;DHT22;55066;51.560;4.642;2023-10-31T09:00:38;10.42;99.99
68251;DHT22;55066;51.560;4.642;2023-10-31T09:03:04;10.45;99.99
68251;DHT22;55066;51.560;4.642;2023-10-31T09:05:30;10.59;99.99
68251;DHT22;55066;51.560;4.642;2023-10-31T09:07:55;10.54;99.99
68251;DHT22;55066;51.560;4.642;2023-10-31T09:10:20;10.61;99.99
68251;DHT22;55066;51.560;4.642;2023-10-31T09:12:46;10.68;99.99
68251;DHT22;55066;51.560;4.642;2023-10-31T09:15:13;10.66;99.99
68251;DHT22;55066;51.560;4.642;2023-10-31T09:17:39;10.66;99.99
68251;DHT22;55066;51.560;4.642;2023-10-31T09:20:05;10.64;99.99
68251;DHT22;55066;51.560;4.642;2023-10-31T09:22:30;10.52;99.99
68251;DHT22;55066;51.560;4.642;2023-10-31T09:24:56;10.58;99.99
68251;DHT22;55066;51.560;4.642;2023-10-31T09:27:21;10.64;99.99
68251;DHT22;55066;51.560;4.642;2023-10-31T09:29:47;10.82;99.99
68251;DHT22;55066;51.560;4.642;2023-10-31T09:32:14;10.86;99.99
68251;DHT22;55066;51.560;4.642;2023-10-31T09:34:40;10.91;99.99
68251;DHT22;55066;51.560;4.642;2023-10-31T09:37:05;11.00;99.99
68251;DHT22;55066;51.560;4.642;2023-10-31T09:39:31;11.10;99.99
68251;DHT22;55066;51.560;4.642;2023-10-31T09:41:56;11.06;99.99
68251;DHT22;55066;51.560;4.642;2023-10-31T09:44:22;11.19;99.99
68251;DHT22;55066;51.560;4.642;2023-10-31T09:46:47;11.23;99.99
68251;DHT22;55066;51.560;4.642;2023-10-31T09:49:13;11.23;99.99
68251;DHT22;55066;51.560;4.642;2023-10-31T09:51:39;11.22;99.99
68251;DHT22;55066;51.560;4.642;2023-10-31T09:54:06;11.24;99.99
68251;DHT22;55066;51.560;4.642;2023-10-31T09:56:33;11.33;99.99
68251;DHT22;55066;51.560;4.642;2023-10-31T09:59:01;11.55;99.99
68251;DHT22;55066;51.560;4.642;2023-10-31T10:01:26;11.69;99.99
68251;DHT22;55066;51.560;4.642;2023-10-31T10:03:52;11.75;99.99
68251;DHT22;55066;51.560;4.642;2023-10-31T10:06:20;11.85;99.99
68251;DHT22;55066;51.560;4.642;2023-10-31T10:08:46;11.89;99.99
68251;DHT22;55066;51.560;4.642;2023-10-31T10:11:12;11.90;99.99
68251;DHT22;55066;51.560;4.642;2023-10-31T10:13:37;12.00;99.99
68251;DHT22;55066;51.560;4.642;2023-10-31T10:16:03;12.06;99.99
68251;DHT22;55066;51.560;4.642;2023-10-31T10:18:34;12.13;99.99
68251;DHT22;55066;51.560;4.642;2023-10-31T10:21:04;11.79;99.99
68251;DHT22;55066;51.560;4.642;2023-10-31T10:23:31;11.74;99.99
68251;DHT22;55066;51.560;4.642;2023-10-31T10:25:58;11.71;99.99
68251;DHT22;55066;51.560;4.642;2023-10-31T10:28:24;11.52;99.99
68251;DHT22;55066;51.560;4.642;2023-10-31T10:30:50;11.37;99.99
68251;DHT22;55066;51.560;4.642;2023-10-31T10:33:17;11.33;99.99
68251;DHT22;55066;51.560;4.642;2023-10-31T10:35:43;11.42;99.99
68251;DHT22;55066;51.560;4.642;2023-10-31T10:38:14;11.58;99.99
68251;DHT22;55066;51.560;4.642;2023-10-31T10:40:41;11.78;99.99
68251;DHT22;55066;51.560;4.642;2023-10-31T10:45:38;11.60;99.99
68251;DHT22;55066;51.560;4.642;2023-10-31T10:48:10;11.41;99.99
68251;DHT22;55066;51.560;4.642;2023-10-31T10:50:41;11.23;99.99
68251;DHT22;55066;51.560;4.642;2023-10-31T10:53:15;11.24;99.99
68251;DHT22;55066;51.560;4.642;2023-10-31T10:55:51;11.48;99.99
68251;DHT22;55066;51.560;4.642;2023-10-31T10:58:24;11.71;99.99
68251;DHT22;55066;51.560;4.642;2023-10-31T11:00:51;11.95;99.99
68251;DHT22;55066;51.560;4.642;2023-10-31T11:03:19;11.69;99.99
68251;DHT22;55066;51.560;4.642;2023-10-31T11:05:45;11.60;99.99
68251;DHT22;55066;51.560;4.642;2023-10-31T11:08:11;11.50;99.99
68251;DHT22;55066;51.560;4.642;2023-10-31T11:10:37;11.40;99.99
68251;DHT22;55066;51.560;4.642;2023-10-31T11:13:03;11.47;99.99
68251;DHT22;55066;51.560;4.642;2023-10-31T11:15:29;11.75;99.99
68251;DHT22;55066;51.560;4.642;2023-10-31T11:17:55;12.13;99.99
68251;DHT22;55066;51.560;4.642;2023-10-31T11:20:21;12.67;99.99
68251;DHT22;55066;51.560;4.642;2023-10-31T11:22:47;12.81;99.99
68251;DHT22;55066;51.560;4.642;2023-10-31T11:25:20;12.99;99.99
68251;DHT22;55066;51.560;4.642;2023-10-31T11:27:50;12.69;99.99
68251;DHT22;55066;51.560;4.642;2023-10-31T11:30:42;12.54;99.99
68251;DHT22;55066;51.560;4.642;2023-10-31T11:33:12;12.44;99.99
68251;DHT22;55066;51.560;4.642;2023-10-31T11:35:39;12.60;99.99
68251;DHT22;55066;51.560;4.642;2023-10-31T11:38:09;12.65;99.99
68251;DHT22;55066;51.560;4.642;2023-10-31T11:40:57;12.44;99.99
68251;DHT22;55066;51.560;4.642;2023-10-31T11:43:23;12.50;99.99
68251;DHT22;55066;51.560;4.642;2023-10-31T11:45:48;12.65;99.99
68251;DHT22;55066;51.560;4.642;2023-10-31T11:48:15;12.60;99.99
68251;DHT22;55066;51.560;4.642;2023-10-31T11:50:41;12.54;99.99
68251;DHT22;55066;51.560;4.642;2023-10-31T11:53:11;12.40;99.99
68251;DHT22;55066;51.560;4.642;2023-10-31T11:55:46;12.27;99.99
68251;DHT22;55066;51.560;4.642;2023-10-31T11:58:13;12.16;99.99
68251;DHT22;55066;51.560;4.642;2023-10-31T12:00:39;12.02;99.99
68251;DHT22;55066;51.560;4.642;2023-10-31T12:03:05;11.88;99.99
68251;DHT22;55066;51.560;4.642;2023-10-31T12:05:30;11.82;99.99
68251;DHT22;55066;51.560;4.642;2023-10-31T12:07:56;11.64;99.99
68251;DHT22;55066;51.560;4.642;2023-10-31T12:10:27;11.58;99.99
68251;DHT22;55066;51.560;4.642;2023-10-31T12:12:56;11.61;99.99
68251;DHT22;55066;51.560;4.642;2023-10-31T12:15:21;11.57;99.99
68251;DHT22;55066;51.560;4.642;2023-10-31T12:17:48;11.57;99.99
68251;DHT22;55066;51.560;4.642;2023-10-31T12:20:14;11.67;99.99
68251;DHT22;55066;51.560;4.642;2023-10-31T12:22:39;11.85;99.99
68251;DHT22;55066;51.560;4.642;2023-10-31T12:25:07;11.96;99.99
68251;DHT22;55066;51.560;4.642;2023-10-31T12:27:45;12.00;99.99
68251;DHT22;55066;51.560;4.642;2023-10-31T12:30:13;12.02;99.99
68251;DHT22;55066;51.560;4.642;2023-10-31T12:32:40;12.00;99.99
68251;DHT22;55066;51.560;4.642;2023-10-31T12:35:08;11.98;99.99
68251;DHT22;55066;51.560;4.642;2023-10-31T12:37:41;12.09;99.99
68251;DHT22;55066;51.560;4.642;2023-10-31T12:40:07;12.29;99.99
68251;DHT22;55066;51.560;4.642;2023-10-31T12:42:34;12.37;99.99
68251;DHT22;55066;51.560;4.642;2023-10-31T12:45:00;12.41;99.99
68251;DHT22;55066;51.560;4.642;2023-10-31T12:47:25;12.37;99.99
68251;DHT22;55066;51.560;4.642;2023-10-31T12:50:14;12.33;99.99
68251;DHT22;55066;51.560;4.642;2023-10-31T12:52:51;12.29;99.99
68251;DHT22;55066;51.560;4.642;2023-10-31T12:55:24;12.33;99.99
68251;DHT22;55066;51.560;4.642;2023-10-31T12:57:51;12.12;99.99
68251;DHT22;55066;51.560;4.642;2023-10-31T13:00:18;11.81;99.99
68251;DHT22;55066;51.560;4.642;2023-10-31T13:02:51;11.68;99.99
68251;DHT22;55066;51.560;4.642;2023-10-31T13:05:17;11.65;99.99
68251;DHT22;55066;51.560;4.642;2023-10-31T13:07:49;11.65;99.99
68251;DHT22;55066;51.560;4.642;2023-10-31T13:10:16;11.61;99.99
68251;DHT22;55066;51.560;4.642;2023-10-31T13:12:46;11.67;99.99
68251;DHT22;55066;51.560;4.642;2023-10-31T13:15:16;11.74;99.99
68251;DHT22;55066;51.560;4.642;2023-10-31T13:17:43;11.90;99.99
68251;DHT22;55066;51.560;4.642;2023-10-31T13:20:11;11.96;99.99
68251;DHT22;55066;51.560;4.642;2023-10-31T13:22:38;11.82;99.99
68251;DHT22;55066;51.560;4.642;2023-10-31T13:25:09;11.72;99.99
68251;DHT22;55066;51.560;4.642;2023-10-31T13:27:43;11.62;99.99
68251;DHT22;55066;51.560;4.642;2023-10-31T13:30:12;11.52;99.99
68251;DHT22;55066;51.560;4.642;2023-10-31T13:32:41;11.45;99.99
68251;DHT22;55066;51.560;4.642;2023-10-31T13:35:07;11.41;99.99
68251;DHT22;55066;51.560;4.642;2023-10-31T13:37:36;11.28;99.99
68251;DHT22;55066;51.560;4.642;2023-10-31T13:40:02;11.23;99.99
68251;DHT22;55066;51.560;4.642;2023-10-31T13:42:28;11.17;99.99
68251;DHT22;55066;51.560;4.642;2023-10-31T13:44:54;11.13;99.99
68251;DHT22;55066;51.560;4.642;2023-10-31T13:47:19;11.16;99.99
68251;DHT22;55066;51.560;4.642;2023-10-31T13:49:45;11.14;99.99
68251;DHT22;55066;51.560;4.642;2023-10-31T13:52:10;11.06;99.99
68251;DHT22;55066;51.560;4.642;2023-10-31T13:54:36;10.99;99.99
68251;DHT22;55066;51.560;4.642;2023-10-31T13:57:01;10.95;99.99
68251;DHT22;55066;51.560;4.642;2023-10-31T13:59:27;10.97;99.99
68251;DHT22;55066;51.560;4.642;2023-10-31T14:01:52;10.96;99.99
68251;DHT22;55066;51.560;4.642;2023-10-31T14:04:19;10.95;99.99
68251;DHT22;55066;51.560;4.642;2023-10-31T14:06:45;10.91;99.99
68251;DHT22;55066;51.560;4.642;2023-10-31T14:09:11;10.89;99.99
68251;DHT22;55066;51.560;4.642;2023-10-31T14:11:38;10.85;99.99
68251;DHT22;55066;51.560;4.642;2023-10-31T14:14:04;10.78;99.99
68251;DHT22;55066;51.560;4.642;2023-10-31T14:16:41;10.78;99.99
68251;DHT22;55066;51.560;4.642;2023-10-31T14:19:11;10.78;99.99
68251;DHT22;55066;51.560;4.642;2023-10-31T14:21:38;10.76;99.99
68251;DHT22;55066;51.560;4.642;2023-10-31T14:24:04;10.83;99.99
68251;DHT22;55066;51.560;4.642;2023-10-31T14:26:30;10.92;99.99
68251;DHT22;55066;51.560;4.642;2023-10-31T14:28:58;10.91;99.99
68251;DHT22;55066;51.560;4.642;2023-10-31T14:31:23;10.96;99.99
68251;DHT22;55066;51.560;4.642;2023-10-31T14:33:49;11.09;99.99
68251;DHT22;55066;51.560;4.642;2023-10-31T14:36:14;11.22;99.99
68251;DHT22;55066;51.560;4.642;2023-10-31T14:38:41;11.26;99.99
68251;DHT22;55066;51.560;4.642;2023-10-31T14:41:08;11.35;99.99
68251;DHT22;55066;51.560;4.642;2023-10-31T14:43:34;11.42;99.99
68251;DHT22;55066;51.560;4.642;2023-10-31T14:46:00;11.30;99.99
68251;DHT22;55066;51.560;4.642;2023-10-31T14:48:26;11.37;99.99
68251;DHT22;55066;51.560;4.642;2023-10-31T14:50:51;11.41;99.99
68251;DHT22;55066;51.560;4.642;2023-10-31T14:53:17;11.51;99.99
68251;DHT22;55066;51.560;4.642;2023-10-31T14:55:45;11.54;99.99
68251;DHT22;55066;51.560;4.642;2023-10-31T14:58:12;11.48;99.99
68251;DHT22;55066;51.560;4.642;2023-10-31T15:00:38;11.57;99.99
68251;DHT22;55066;51.560;4.642;2023-10-31T15:03:04;11.45;99.99
68251;DHT22;55066;51.560;4.642;2023-10-31T15:05:29;11.41;99.99
68251;DHT22;55066;51.560;4.642;2023-10-31T15:07:56;11.51;99.99
68251;DHT22;55066;51.560;4.642;2023-10-31T15:10:23;11.30;99.99
68251;DHT22;55066;51.560;4.642;2023-10-31T15:12:48;11.14;99.99
68251;DHT22;55066;51.560;4.642;2023-10-31T15:15:15;11.22;99.99
68251;DHT22;55066;51.560;4.642;2023-10-31T15:17:41;11.28;99.99
68251;DHT22;55066;51.560;4.642;2023-10-31T15:20:07;11.31;99.99
68251;DHT22;55066;51.560;4.642;2023-10-31T15:22:35;11.35;99.99
68251;DHT22;55066;51.560;4.642;2023-10-31T15:25:02;11.40;99.99
68251;DHT22;55066;51.560;4.642;2023-10-31T15:27:27;11.34;99.99
68251;DHT22;55066;51.560;4.642;2023-10-31T15:29:53;11.34;99.99
68251;DHT22;55066;51.560;4.642;2023-10-31T15:32:18;11.37;99.99
68251;DHT22;55066;51.560;4.642;2023-10-31T15:34:43;11.44;99.99